sensor_id;sensor_type;location;lat;lon;timestamp;pressure;altitude;pressure_sealevel;temperature;humidity
23589;BME280;11972;48.078;11.876;2023-03-04T00:01:32;95710.16;;;-0.80;100.00
23589;BME280;11972;48.078;11.876;2023-03-04T00:05:32;95711.81;;;-0.79;100.00
23589;BME280;11972;48.078;11.876;2023-03-04T00:09:33;95707.22;;;-0.63;100.00
23589;BME280;11972;48.078;11.876;2023-03-04T00:13:33;95708.44;;;-0.56;100.00
23589;BME280;11972;48.078;11.876;2023-03-04T00:17:34;95713.94;;;-0.60;100.00
23589;BME280;11972;48.078;11.876;2023-03-04T00:21:34;95712.41;;;-0.63;100.00
23589;BME280;11972;48.078;11.876;2023-03-04T00:25:34;95718.28;;;-0.48;100.00
23589;BME280;11972;48.078;11.876;2023-03-04T00:29:34;95708.78;;;-0.36;100.00
23589;BME280;11972;48.078;11.876;2023-03-04T00:33:35;95715.00;;;-0.39;100.00
23589;BME280;11972;48.078;11.876;2023-03-04T00:37:36;95717.06;;;-0.31;100.00
23589;BME280;11972;48.078;11.876;2023-03-04T00:41:36;95723.47;;;-0.24;100.00
23589;BME280;11972;48.078;11.876;2023-03-04T00:45:37;95720.03;;;-0.24;100.00
23589;BME280;11972;48.078;11.876;2023-03-04T00:49:37;95720.13;;;-0.26;100.00
23589;BME280;11972;48.078;11.876;2023-03-04T00:53:37;95715.88;;;-0.27;100.00
23589;BME280;11972;48.078;11.876;2023-03-04T00:57:38;95711.66;;;-0.28;100.00
23589;BME280;11972;48.078;11.876;2023-03-04T01:01:39;95713.50;;;-0.30;100.00
23589;BME280;11972;48.078;11.876;2023-03-04T01:05:39;95711.47;;;-0.38;100.00
23589;BME280;11972;48.078;11.876;2023-03-04T01:09:40;95712.97;;;-0.46;100.00
23589;BME280;11972;48.078;11.876;2023-03-04T01:13:40;95704.19;;;-0.57;100.00
23589;BME280;11972;48.078;11.876;2023-03-04T01:17:40;95704.72;;;-0.64;100.00
23589;BME280;11972;48.078;11.876;2023-03-04T01:21:41;95702.00;;;-0.63;100.00
23589;BME280;11972;48.078;11.876;2023-03-04T01:25:41;95703.47;;;-0.59;100.00
23589;BME280;11972;48.078;11.876;2023-03-04T01:29:41;95695.75;;;-0.47;100.00
23589;BME280;11972;48.078;11.876;2023-03-04T01:33:42;95685.63;;;-0.39;100.00
23589;BME280;11972;48.078;11.876;2023-03-04T01:37:42;95693.06;;;-0.35;100.00
23589;BME280;11972;48.078;11.876;2023-03-04T01:41:42;95688.78;;;-0.23;100.00
23589;BME280;11972;48.078;11.876;2023-03-04T01:45:43;95685.16;;;-0.09;100.00
23589;BME280;11972;48.078;11.876;2023-03-04T01:49:45;95676.09;;;0.08;100.00
23589;BME280;11972;48.078;11.876;2023-03-04T01:53:49;95677.56;;;0.23;100.00
23589;BME280;11972;48.078;11.876;2023-03-04T01:57:52;95677.59;;;0.34;100.00
23589;BME280;11972;48.078;11.876;2023-03-04T02:01:58;95670.66;;;0.46;100.00
23589;BME280;11972;48.078;11.876;2023-03-04T02:05:59;95655.66;;;0.49;100.00
23589;BME280;11972;48.078;11.876;2023-03-04T02:09:59;95659.16;;;0.48;100.00
23589;BME280;11972;48.078;11.876;2023-03-04T02:13:59;95664.84;;;0.42;100.00
23589;BME280;11972;48.078;11.876;2023-03-04T02:18:00;95648.06;;;0.35;100.00
23589;BME280;11972;48.078;11.876;2023-03-04T02:22:01;95652.06;;;0.28;100.00
23589;BME280;11972;48.078;11.876;2023-03-04T02:26:20;95649.00;;;0.23;100.00
23589;BME280;11972;48.078;11.876;2023-03-04T02:30:22;95647.34;;;0.22;100.00
23589;BME280;11972;48.078;11.876;2023-03-04T02:34:32;95649.69;;;0.14;100.00
23589;BME280;11972;48.078;11.876;2023-03-04T02:38:34;95640.22;;;0.02;100.00
23589;BME280;11972;48.078;11.876;2023-03-04T02:42:34;95637.81;;;-0.13;100.00
23589;BME280;11972;48.078;11.876;2023-03-04T02:46:35;95633.53;;;-0.25;100.00
23589;BME280;11972;48.078;11.876;2023-03-04T02:50:40;95636.59;;;-0.31;100.00
23589;BME280;11972;48.078;11.876;2023-03-04T02:54:40;95629.69;;;-0.43;100.00
23589;BME280;11972;48.078;11.876;2023-03-04T02:58:41;95628.25;;;-0.47;100.00
23589;BME280;11972;48.078;11.876;2023-03-04T03:02:41;95632.03;;;-0.52;100.00
23589;BME280;11972;48.078;11.876;2023-03-04T03:06:41;95639.53;;;-0.60;100.00
23589;BME280;11972;48.078;11.876;2023-03-04T03:10:42;95632.53;;;-0.70;100.00
23589;BME280;11972;48.078;11.876;2023-03-04T03:14:42;95638.59;;;-0.83;100.00
23589;BME280;11972;48.078;11.876;2023-03-04T03:18:42;95638.72;;;-0.84;100.00
23589;BME280;11972;48.078;11.876;2023-03-04T03:22:43;95640.31;;;-0.94;100.00
23589;BME280;11972;48.078;11.876;2023-03-04T03:26:43;95637.66;;;-1.06;100.00
23589;BME280;11972;48.078;11.876;2023-03-04T03:30:43;95642.63;;;-1.15;100.00
23589;BME280;11972;48.078;11.876;2023-03-04T03:34:44;95637.47;;;-1.28;100.00
23589;BME280;11972;48.078;11.876;2023-03-04T03:38:44;95637.31;;;-1.38;100.00
23589;BME280;11972;48.078;11.876;2023-03-04T03:42:44;95637.94;;;-1.47;100.00
23589;BME280;11972;48.078;11.876;2023-03-04T03:46:45;95641.06;;;-1.55;100.00
23589;BME280;11972;48.078;11.876;2023-03-04T03:50:46;95648.34;;;-1.60;100.00
23589;BME280;11972;48.078;11.876;2023-03-04T03:54:46;95642.84;;;-1.68;100.00
23589;BME280;11972;48.078;11.876;2023-03-04T03:58:46;95638.06;;;-1.74;100.00
23589;BME280;11972;48.078;11.876;2023-03-04T04:02:47;95642.13;;;-1.83;100.00
23589;BME280;11972;48.078;11.876;2023-03-04T04:06:47;95650.59;;;-1.93;100.00
23589;BME280;11972;48.078;11.876;2023-03-04T04:10:47;95647.72;;;-2.02;100.00
23589;BME280;11972;48.078;11.876;2023-03-04T04:14:48;95650.69;;;-2.08;100.00
23589;BME280;11972;48.078;11.876;2023-03-04T04:18:48;95647.81;;;-2.03;100.00
23589;BME280;11972;48.078;11.876;2023-03-04T04:22:48;95643.75;;;-1.94;100.00
23589;BME280;11972;48.078;11.876;2023-03-04T04:26:49;95644.59;;;-1.81;100.00
23589;BME280;11972;48.078;11.876;2023-03-04T04:30:50;95649.78;;;-1.81;100.00
23589;BME280;11972;48.078;11.876;2023-03-04T04:34:50;95651.44;;;-1.93;100.00
23589;BME280;11972;48.078;11.876;2023-03-04T04:38:50;95646.97;;;-2.04;100.00
23589;BME280;11972;48.078;11.876;2023-03-04T04:42:50;95644.81;;;-2.10;100.00
23589;BME280;11972;48.078;11.876;2023-03-04T04:46:51;95637.03;;;-2.10;100.00
23589;BME280;11972;48.078;11.876;2023-03-04T04:50:55;95640.03;;;-2.16;100.00
23589;BME280;11972;48.078;11.876;2023-03-04T04:54:55;95645.94;;;-2.14;100.00
23589;BME280;11972;48.078;11.876;2023-03-04T04:58:58;95650.00;;;-1.97;100.00
23589;BME280;11972;48.078;11.876;2023-03-04T05:02:58;95640.25;;;-1.93;100.00
23589;BME280;11972;48.078;11.876;2023-03-04T05:06:59;95642.94;;;-1.95;100.00
23589;BME280;11972;48.078;11.876;2023-03-04T05:10:59;95640.22;;;-2.06;100.00
23589;BME280;11972;48.078;11.876;2023-03-04T05:15:00;95641.47;;;-2.12;100.00
23589;BME280;11972;48.078;11.876;2023-03-04T05:19:00;95640.22;;;-2.06;100.00
23589;BME280;11972;48.078;11.876;2023-03-04T05:23:00;95643.44;;;-2.03;100.00
23589;BME280;11972;48.078;11.876;2023-03-04T05:27:01;95644.91;;;-1.98;100.00
23589;BME280;11972;48.078;11.876;2023-03-04T05:31:02;95642.75;;;-2.05;100.00
23589;BME280;11972;48.078;11.876;2023-03-04T05:35:03;95645.19;;;-2.16;100.00
23589;BME280;11972;48.078;11.876;2023-03-04T05:39:03;95642.28;;;-2.24;100.00
23589;BME280;11972;48.078;11.876;2023-03-04T05:43:04;95645.06;;;-2.27;100.00
23589;BME280;11972;48.078;11.876;2023-03-04T05:47:04;95643.13;;;-2.23;100.00
23589;BME280;11972;48.078;11.876;2023-03-04T05:51:05;95644.25;;;-2.15;100.00
23589;BME280;11972;48.078;11.876;2023-03-04T05:55:05;95658.44;;;-2.20;100.00
23589;BME280;11972;48.078;11.876;2023-03-04T05:59:06;95660.09;;;-2.32;100.00
23589;BME280;11972;48.078;11.876;2023-03-04T06:03:06;95658.00;;;-2.40;100.00
23589;BME280;11972;48.078;11.876;2023-03-04T06:07:11;95659.03;;;-2.42;100.00
23589;BME280;11972;48.078;11.876;2023-03-04T06:11:11;95665.44;;;-2.35;100.00
23589;BME280;11972;48.078;11.876;2023-03-04T06:15:12;95668.31;;;-2.13;100.00
23589;BME280;11972;48.078;11.876;2023-03-04T06:19:13;95666.13;;;-1.93;100.00
23589;BME280;11972;48.078;11.876;2023-03-04T06:23:13;95675.16;;;-1.86;100.00
23589;BME280;11972;48.078;11.876;2023-03-04T06:27:13;95672.69;;;-1.88;100.00
23589;BME280;11972;48.078;11.876;2023-03-04T06:31:15;95672.34;;;-1.83;100.00
23589;BME280;11972;48.078;11.876;2023-03-04T06:35:16;95679.09;;;-1.81;100.00
23589;BME280;11972;48.078;11.876;2023-03-04T06:39:16;95680.00;;;-1.69;100.00
23589;BME280;11972;48.078;11.876;2023-03-04T06:43:17;95686.03;;;-1.56;100.00
23589;BME280;11972;48.078;11.876;2023-03-04T06:47:18;95688.94;;;-1.47;100.00
23589;BME280;11972;48.078;11.876;2023-03-04T06:51:18;95688.81;;;-1.33;100.00
23589;BME280;11972;48.078;11.876;2023-03-04T06:55:19;95699.66;;;-1.15;100.00
23589;BME280;11972;48.078;11.876;2023-03-04T06:59:19;95696.75;;;-0.98;100.00
23589;BME280;11972;48.078;11.876;2023-03-04T07:03:19;95692.97;;;-0.81;100.00
23589;BME280;11972;48.078;11.876;2023-03-04T07:07:20;95699.66;;;-0.66;100.00
23589;BME280;11972;48.078;11.876;2023-03-04T07:11:20;95696.56;;;-0.47;100.00
23589;BME280;11972;48.078;11.876;2023-03-04T07:15:21;95694.19;;;-0.26;100.00
23589;BME280;11972;48.078;11.876;2023-03-04T07:19:21;95698.53;;;-0.03;100.00
23589;BME280;11972;48.078;11.876;2023-03-04T07:23:22;95696.56;;;0.23;100.00
23589;BME280;11972;48.078;11.876;2023-03-04T07:27:22;95700.75;;;0.48;100.00
23589;BME280;11972;48.078;11.876;2023-03-04T07:31:28;95704.09;;;0.73;100.00
23589;BME280;11972;48.078;11.876;2023-03-04T07:35:31;95709.53;;;0.92;100.00
23589;BME280;11972;48.078;11.876;2023-03-04T07:39:31;95715.06;;;1.10;100.00
23589;BME280;11972;48.078;11.876;2023-03-04T07:43:32;95721.00;;;1.23;100.00
23589;BME280;11972;48.078;11.876;2023-03-04T07:47:32;95726.88;;;1.37;100.00
23589;BME280;11972;48.078;11.876;2023-03-04T07:51:32;95725.44;;;1.44;100.00
23589;BME280;11972;48.078;11.876;2023-03-04T07:55:34;95730.75;;;1.54;100.00
23589;BME280;11972;48.078;11.876;2023-03-04T07:59:34;95733.56;;;1.62;100.00
23589;BME280;11972;48.078;11.876;2023-03-04T08:03:34;95739.69;;;1.72;100.00
23589;BME280;11972;48.078;11.876;2023-03-04T08:07:35;95744.19;;;1.81;100.00
23589;BME280;11972;48.078;11.876;2023-03-04T08:11:36;95742.03;;;1.86;100.00
23589;BME280;11972;48.078;11.876;2023-03-04T08:15:40;95741.28;;;1.95;100.00
23589;BME280;11972;48.078;11.876;2023-03-04T08:19:43;95740.66;;;2.03;100.00
23589;BME280;11972;48.078;11.876;2023-03-04T08:23:44;95740.28;;;2.08;100.00
23589;BME280;11972;48.078;11.876;2023-03-04T08:27:45;95744.16;;;2.13;100.00
23589;BME280;11972;48.078;11.876;2023-03-04T08:31:49;95748.06;;;2.19;100.00
23589;BME280;11972;48.078;11.876;2023-03-04T08:35:51;95742.66;;;2.32;100.00
23589;BME280;11972;48.078;11.876;2023-03-04T08:39:51;95741.66;;;2.44;100.00
23589;BME280;11972;48.078;11.876;2023-03-04T08:43:52;95742.53;;;2.54;100.00
23589;BME280;11972;48.078;11.876;2023-03-04T08:47:52;95736.44;;;2.65;100.00
23589;BME280;11972;48.078;11.876;2023-03-04T08:51:53;95739.66;;;2.78;100.00
23589;BME280;11972;48.078;11.876;2023-03-04T08:55:53;95746.88;;;2.95;100.00
23589;BME280;11972;48.078;11.876;2023-03-04T08:59:53;95745.56;;;3.01;100.00
23589;BME280;11972;48.078;11.876;2023-03-04T09:03:54;95741.19;;;3.11;100.00
23589;BME280;11972;48.078;11.876;2023-03-04T09:07:54;95740.16;;;3.23;100.00
23589;BME280;11972;48.078;11.876;2023-03-04T09:11:54;95732.50;;;3.41;100.00
23589;BME280;11972;48.078;11.876;2023-03-04T09:15:55;95736.28;;;3.58;100.00
23589;BME280;11972;48.078;11.876;2023-03-04T09:19:56;95729.44;;;3.67;100.00
23589;BME280;11972;48.078;11.876;2023-03-04T09:23:56;95722.16;;;3.80;100.00
23589;BME280;11972;48.078;11.876;2023-03-04T09:27:57;95712.53;;;3.90;100.00
23589;BME280;11972;48.078;11.876;2023-03-04T09:31:57;95709.78;;;4.02;100.00
23589;BME280;11972;48.078;11.876;2023-03-04T09:35:57;95712.94;;;4.15;100.00
23589;BME280;11972;48.078;11.876;2023-03-04T09:39:58;95711.41;;;4.32;100.00
23589;BME280;11972;48.078;11.876;2023-03-04T09:43:58;95703.97;;;4.46;100.00
23589;BME280;11972;48.078;11.876;2023-03-04T09:47:59;95705.91;;;4.54;100.00
23589;BME280;11972;48.078;11.876;2023-03-04T09:56:17;95700.00;;;4.89;100.00
23589;BME280;11972;48.078;11.876;2023-03-04T10:00:32;95701.75;;;5.08;100.00
23589;BME280;11972;48.078;11.876;2023-03-04T10:09:05;95684.72;;;5.22;100.00
23589;BME280;11972;48.078;11.876;2023-03-04T10:13:14;95684.25;;;5.36;100.00
23589;BME280;11972;48.078;11.876;2023-03-04T10:17:23;95679.47;;;5.50;100.00
23589;BME280;11972;48.078;11.876;2023-03-04T10:21:35;95666.94;;;5.71;100.00
23589;BME280;11972;48.078;11.876;2023-03-04T10:25:42;95666.44;;;5.85;100.00
23589;BME280;11972;48.078;11.876;2023-03-04T10:29:43;95660.53;;;6.01;100.00
23589;BME280;11972;48.078;11.876;2023-03-04T10:33:43;95654.91;;;6.14;100.00
23589;BME280;11972;48.078;11.876;2023-03-04T10:37:45;95662.84;;;6.22;100.00
23589;BME280;11972;48.078;11.876;2023-03-04T10:41:57;95655.44;;;6.17;100.00
23589;BME280;11972;48.078;11.876;2023-03-04T10:45:58;95641.81;;;6.14;100.00
23589;BME280;11972;48.078;11.876;2023-03-04T10:50:03;95643.22;;;6.26;100.00
23589;BME280;11972;48.078;11.876;2023-03-04T10:54:09;95651.66;;;6.20;100.00
23589;BME280;11972;48.078;11.876;2023-03-04T10:58:14;95646.34;;;6.30;100.00
23589;BME280;11972;48.078;11.876;2023-03-04T11:02:34;95642.59;;;6.32;100.00
23589;BME280;11972;48.078;11.876;2023-03-04T11:06:39;95635.59;;;6.41;100.00
23589;BME280;11972;48.078;11.876;2023-03-04T11:10:40;95632.72;;;6.52;100.00
23589;BME280;11972;48.078;11.876;2023-03-04T11:18:51;95627.34;;;6.62;100.00
23589;BME280;11972;48.078;11.876;2023-03-04T11:22:54;95623.50;;;6.74;100.00
23589;BME280;11972;48.078;11.876;2023-03-04T11:27:12;95622.03;;;6.71;100.00
23589;BME280;11972;48.078;11.876;2023-03-04T11:31:19;95625.34;;;7.16;100.00
23589;BME280;11972;48.078;11.876;2023-03-04T11:39:53;95620.78;;;6.58;100.00
23589;BME280;11972;48.078;11.876;2023-03-04T11:43:56;95621.09;;;6.55;100.00
23589;BME280;11972;48.078;11.876;2023-03-04T11:56:43;95607.00;;;6.30;100.00
23589;BME280;11972;48.078;11.876;2023-03-04T12:01:08;95608.63;;;6.57;100.00
23589;BME280;11972;48.078;11.876;2023-03-04T12:05:35;95589.69;;;6.71;100.00
23589;BME280;11972;48.078;11.876;2023-03-04T12:10:21;95605.59;;;6.43;100.00
23589;BME280;11972;48.078;11.876;2023-03-04T12:23:15;95594.66;;;6.82;100.00
23589;BME280;11972;48.078;11.876;2023-03-04T12:27:48;95586.09;;;6.72;100.00
23589;BME280;11972;48.078;11.876;2023-03-04T12:36:39;95572.88;;;6.90;100.00
23589;BME280;11972;48.078;11.876;2023-03-04T12:54:13;95547.13;;;6.93;100.00
23589;BME280;11972;48.078;11.876;2023-03-04T12:58:20;95539.97;;;7.12;100.00
23589;BME280;11972;48.078;11.876;2023-03-04T13:02:38;95540.63;;;7.22;100.00
23589;BME280;11972;48.078;11.876;2023-03-04T13:07:09;95533.75;;;7.21;100.00
23589;BME280;11972;48.078;11.876;2023-03-04T13:15:32;95520.81;;;7.85;100.00
23589;BME280;11972;48.078;11.876;2023-03-04T13:23:45;95529.97;;;7.40;100.00
23589;BME280;11972;48.078;11.876;2023-03-04T13:28:01;95518.28;;;7.10;100.00
23589;BME280;11972;48.078;11.876;2023-03-04T13:32:09;95503.50;;;7.01;100.00
23589;BME280;11972;48.078;11.876;2023-03-04T13:36:30;95506.63;;;6.62;100.00
23589;BME280;11972;48.078;11.876;2023-03-04T13:40:35;95512.50;;;6.47;100.00
23589;BME280;11972;48.078;11.876;2023-03-04T13:44:59;95503.09;;;6.11;100.00
23589;BME280;11972;48.078;11.876;2023-03-04T13:49:03;95509.59;;;5.99;100.00
23589;BME280;11972;48.078;11.876;2023-03-04T13:53:42;95494.03;;;5.79;100.00
23589;BME280;11972;48.078;11.876;2023-03-04T13:57:49;95494.41;;;5.84;100.00
23589;BME280;11972;48.078;11.876;2023-03-04T14:01:59;95506.28;;;5.96;100.00
23589;BME280;11972;48.078;11.876;2023-03-04T14:06:26;95503.00;;;5.94;100.00
23589;BME280;11972;48.078;11.876;2023-03-04T14:10:27;95507.94;;;5.97;100.00
23589;BME280;11972;48.078;11.876;2023-03-04T14:19:24;95496.81;;;5.78;100.00
23589;BME280;11972;48.078;11.876;2023-03-04T14:23:26;95491.34;;;5.71;100.00
23589;BME280;11972;48.078;11.876;2023-03-04T14:27:29;95494.34;;;5.76;100.00
23589;BME280;11972;48.078;11.876;2023-03-04T14:31:33;95500.81;;;5.64;100.00
23589;BME280;11972;48.078;11.876;2023-03-04T14:35:34;95497.59;;;5.52;100.00
23589;BME280;11972;48.078;11.876;2023-03-04T14:39:35;95500.59;;;5.21;100.00
23589;BME280;11972;48.078;11.876;2023-03-04T14:43:57;95491.75;;;5.05;100.00
23589;BME280;11972;48.078;11.876;2023-03-04T14:48:04;95491.91;;;5.21;100.00
23589;BME280;11972;48.078;11.876;2023-03-04T14:52:05;95491.94;;;5.03;100.00
23589;BME280;11972;48.078;11.876;2023-03-04T14:56:08;95502.59;;;4.74;100.00
23589;BME280;11972;48.078;11.876;2023-03-04T15:04:18;95494.06;;;4.44;100.00
23589;BME280;11972;48.078;11.876;2023-03-04T15:08:32;95507.88;;;4.27;100.00
23589;BME280;11972;48.078;11.876;2023-03-04T15:12:35;95497.00;;;3.94;100.00
23589;BME280;11972;48.078;11.876;2023-03-04T15:16:54;95492.84;;;3.55;100.00
23589;BME280;11972;48.078;11.876;2023-03-04T15:20:58;95495.59;;;3.34;100.00
23589;BME280;11972;48.078;11.876;2023-03-04T15:24:59;95492.84;;;3.16;100.00
23589;BME280;11972;48.078;11.876;2023-03-04T15:29:02;95499.16;;;3.23;100.00
23589;BME280;11972;48.078;11.876;2023-03-04T15:33:05;95498.88;;;3.07;100.00
23589;BME280;11972;48.078;11.876;2023-03-04T15:37:19;95503.03;;;3.09;100.00
23589;BME280;11972;48.078;11.876;2023-03-04T15:41:25;95506.00;;;2.85;100.00
23589;BME280;11972;48.078;11.876;2023-03-04T15:49:28;95505.25;;;2.54;100.00
23589;BME280;11972;48.078;11.876;2023-03-04T15:53:35;95510.44;;;2.44;100.00
23589;BME280;11972;48.078;11.876;2023-03-04T15:57:36;95517.41;;;2.34;100.00
23589;BME280;11972;48.078;11.876;2023-03-04T16:01:36;95505.69;;;2.19;100.00
23589;BME280;11972;48.078;11.876;2023-03-04T16:05:37;95510.69;;;2.01;100.00
23589;BME280;11972;48.078;11.876;2023-03-04T16:09:37;95514.72;;;1.84;100.00
23589;BME280;11972;48.078;11.876;2023-03-04T16:13:38;95520.00;;;1.52;100.00
23589;BME280;11972;48.078;11.876;2023-03-04T16:17:38;95530.88;;;1.36;100.00
23589;BME280;11972;48.078;11.876;2023-03-04T16:21:42;95534.00;;;1.19;100.00
23589;BME280;11972;48.078;11.876;2023-03-04T16:25:44;95535.13;;;1.05;100.00
23589;BME280;11972;48.078;11.876;2023-03-04T16:29:45;95537.88;;;0.92;100.00
23589;BME280;11972;48.078;11.876;2023-03-04T16:33:45;95539.69;;;0.81;100.00
23589;BME280;11972;48.078;11.876;2023-03-04T16:37:46;95541.25;;;0.72;100.00
23589;BME280;11972;48.078;11.876;2023-03-04T16:41:46;95541.03;;;0.64;100.00
23589;BME280;11972;48.078;11.876;2023-03-04T16:45:47;95540.56;;;0.47;100.00
23589;BME280;11972;48.078;11.876;2023-03-04T16:49:48;95536.19;;;0.37;100.00
23589;BME280;11972;48.078;11.876;2023-03-04T16:53:54;95542.25;;;0.37;100.00
23589;BME280;11972;48.078;11.876;2023-03-04T16:57:56;95546.50;;;0.38;100.00
23589;BME280;11972;48.078;11.876;2023-03-04T17:01:57;95550.88;;;0.38;100.00
23589;BME280;11972;48.078;11.876;2023-03-04T17:05:57;95554.38;;;0.37;100.00
23589;BME280;11972;48.078;11.876;2023-03-04T17:09:58;95561.13;;;0.39;100.00
23589;BME280;11972;48.078;11.876;2023-03-04T17:13:58;95571.88;;;0.46;100.00
23589;BME280;11972;48.078;11.876;2023-03-04T17:17:58;95576.00;;;0.48;100.00
23589;BME280;11972;48.078;11.876;2023-03-04T17:22:00;95584.97;;;0.44;100.00
23589;BME280;11972;48.078;11.876;2023-03-04T17:26:01;95588.16;;;0.37;100.00
23589;BME280;11972;48.078;11.876;2023-03-04T17:30:04;95589.34;;;0.33;100.00
23589;BME280;11972;48.078;11.876;2023-03-04T17:34:05;95589.25;;;0.34;100.00
23589;BME280;11972;48.078;11.876;2023-03-04T17:38:06;95597.41;;;0.30;100.00
23589;BME280;11972;48.078;11.876;2023-03-04T17:42:07;95603.41;;;0.30;100.00
23589;BME280;11972;48.078;11.876;2023-03-04T17:46:09;95611.22;;;0.30;100.00
23589;BME280;11972;48.078;11.876;2023-03-04T17:50:10;95613.91;;;0.17;100.00
23589;BME280;11972;48.078;11.876;2023-03-04T17:54:11;95626.06;;;0.06;100.00
23589;BME280;11972;48.078;11.876;2023-03-04T17:58:11;95620.63;;;-0.03;100.00
23589;BME280;11972;48.078;11.876;2023-03-04T18:02:15;95620.63;;;-0.03;100.00
23589;BME280;11972;48.078;11.876;2023-03-04T18:06:15;95626.75;;;-0.04;100.00
23589;BME280;11972;48.078;11.876;2023-03-04T18:10:16;95619.19;;;-0.07;100.00
23589;BME280;11972;48.078;11.876;2023-03-04T18:14:16;95625.56;;;-0.11;100.00
23589;BME280;11972;48.078;11.876;2023-03-04T18:18:17;95632.28;;;-0.08;100.00
23589;BME280;11972;48.078;11.876;2023-03-04T18:22:17;95634.78;;;-0.07;100.00
23589;BME280;11972;48.078;11.876;2023-03-04T18:26:18;95635.47;;;-0.16;100.00
23589;BME280;11972;48.078;11.876;2023-03-04T18:30:21;95645.34;;;-0.21;100.00
23589;BME280;11972;48.078;11.876;2023-03-04T18:34:26;95644.41;;;-0.20;100.00
23589;BME280;11972;48.078;11.876;2023-03-04T18:38:27;95645.34;;;-0.21;100.00
23589;BME280;11972;48.078;11.876;2023-03-04T18:42:27;95639.56;;;-0.24;100.00
23589;BME280;11972;48.078;11.876;2023-03-04T18:51:06;95645.47;;;-0.22;100.00
23589;BME280;11972;48.078;11.876;2023-03-04T18:55:06;95651.25;;;-0.19;100.00
23589;BME280;11972;48.078;11.876;2023-03-04T18:59:17;95657.00;;;-0.27;100.00
23589;BME280;11972;48.078;11.876;2023-03-04T19:03:18;95655.19;;;-0.37;100.00
23589;BME280;11972;48.078;11.876;2023-03-04T19:07:19;95662.28;;;-0.39;100.00
23589;BME280;11972;48.078;11.876;2023-03-04T19:11:20;95665.81;;;-0.40;100.00
23589;BME280;11972;48.078;11.876;2023-03-04T19:15:22;95660.50;;;-0.39;100.00
23589;BME280;11972;48.078;11.876;2023-03-04T19:19:22;95670.19;;;-0.41;100.00
23589;BME280;11972;48.078;11.876;2023-03-04T19:23:22;95677.63;;;-0.36;100.00
23589;BME280;11972;48.078;11.876;2023-03-04T19:27:24;95679.28;;;-0.35;100.00
23589;BME280;11972;48.078;11.876;2023-03-04T19:31:25;95672.66;;;-0.39;100.00
23589;BME280;11972;48.078;11.876;2023-03-04T19:35:25;95675.25;;;-0.39;100.00
23589;BME280;11972;48.078;11.876;2023-03-04T19:39:26;95676.47;;;-0.32;100.00
23589;BME280;11972;48.078;11.876;2023-03-04T19:43:26;95670.94;;;-0.28;100.00
23589;BME280;11972;48.078;11.876;2023-03-04T19:47:27;95672.72;;;-0.28;100.00
23589;BME280;11972;48.078;11.876;2023-03-04T19:51:27;95663.03;;;-0.26;100.00
23589;BME280;11972;48.078;11.876;2023-03-04T19:55:28;95674.13;;;-0.24;100.00
23589;BME280;11972;48.078;11.876;2023-03-04T19:59:28;95670.13;;;-0.28;100.00
23589;BME280;11972;48.078;11.876;2023-03-04T20:03:28;95666.56;;;-0.27;100.00
23589;BME280;11972;48.078;11.876;2023-03-04T20:07:29;95665.34;;;-0.34;100.00
23589;BME280;11972;48.078;11.876;2023-03-04T20:11:29;95661.44;;;-0.40;100.00
23589;BME280;11972;48.078;11.876;2023-03-04T20:15:30;95667.00;;;-0.33;100.00
23589;BME280;11972;48.078;11.876;2023-03-04T20:19:32;95677.38;;;-0.33;100.00
23589;BME280;11972;48.078;11.876;2023-03-04T20:23:34;95667.34;;;-0.38;100.00
23589;BME280;11972;48.078;11.876;2023-03-04T20:27:35;95668.78;;;-0.34;100.00
23589;BME280;11972;48.078;11.876;2023-03-04T20:31:36;95666.78;;;-0.30;100.00
23589;BME280;11972;48.078;11.876;2023-03-04T20:35:38;95668.44;;;-0.29;100.00
23589;BME280;11972;48.078;11.876;2023-03-04T20:39:39;95669.16;;;-0.27;100.00
23589;BME280;11972;48.078;11.876;2023-03-04T20:43:40;95668.22;;;-0.26;100.00
23589;BME280;11972;48.078;11.876;2023-03-04T20:47:40;95664.41;;;-0.33;100.00
23589;BME280;11972;48.078;11.876;2023-03-04T20:51:41;95659.94;;;-0.31;100.00
23589;BME280;11972;48.078;11.876;2023-03-04T20:55:43;95644.59;;;-0.34;100.00
23589;BME280;11972;48.078;11.876;2023-03-04T20:59:43;95650.25;;;-0.40;100.00
23589;BME280;11972;48.078;11.876;2023-03-04T21:03:44;95652.94;;;-0.42;100.00
23589;BME280;11972;48.078;11.876;2023-03-04T21:07:44;95651.44;;;-0.33;100.00
23589;BME280;11972;48.078;11.876;2023-03-04T21:11:45;95650.38;;;-0.31;100.00
23589;BME280;11972;48.078;11.876;2023-03-04T21:15:46;95640.63;;;-0.27;100.00
23589;BME280;11972;48.078;11.876;2023-03-04T21:19:47;95638.50;;;-0.22;100.00
23589;BME280;11972;48.078;11.876;2023-03-04T21:23:48;95635.69;;;-0.19;100.00
23589;BME280;11972;48.078;11.876;2023-03-04T21:27:50;95636.38;;;-0.17;100.00
23589;BME280;11972;48.078;11.876;2023-03-04T21:31:53;95634.50;;;-0.15;100.00
23589;BME280;11972;48.078;11.876;2023-03-04T21:35:55;95641.13;;;-0.11;100.00
23589;BME280;11972;48.078;11.876;2023-03-04T21:39:55;95633.47;;;-0.12;100.00
23589;BME280;11972;48.078;11.876;2023-03-04T21:43:57;95630.75;;;-0.11;100.00
23589;BME280;11972;48.078;11.876;2023-03-04T21:47:57;95635.94;;;-0.11;100.00
23589;BME280;11972;48.078;11.876;2023-03-04T21:51:57;95628.28;;;-0.12;100.00
23589;BME280;11972;48.078;11.876;2023-03-04T21:55:58;95633.56;;;-0.14;100.00
23589;BME280;11972;48.078;11.876;2023-03-04T21:59:58;95624.34;;;-0.18;100.00
23589;BME280;11972;48.078;11.876;2023-03-04T22:04:00;95625.25;;;-0.30;100.00
23589;BME280;11972;48.078;11.876;2023-03-04T22:08:00;95618.09;;;-0.51;100.00
23589;BME280;11972;48.078;11.876;2023-03-04T22:12:00;95618.19;;;-0.63;100.00
23589;BME280;11972;48.078;11.876;2023-03-04T22:16:01;95609.09;;;-0.69;100.00
23589;BME280;11972;48.078;11.876;2023-03-04T22:20:02;95605.88;;;-0.72;100.00